WetterOnline ( https://www.wetteronline.de )

Wetter aktuell Ostende

Aktuelles Wetter: Oostende Airport (5m)

6-stündlich | Neueste Meldungen
Ortszeit Temperatur Wetter
Do, 18.07. 8:00 16.6° C wolkig
Do, 18.07. 2:00 14.8° C wolkig
Mi, 17.07. 20:00 19.8° C leicht bewölkt
Mi, 17.07. 14:00 19.4° C leicht bewölkt
Mi, 17.07. 8:00 17.3° C leicht bewölkt
Mi, 17.07. 2:00 15.6° C bewölkt
Di, 16.07. 20:00 17.9° C bedeckt
Di, 16.07. 14:00 18.9° C bewölkt
Ortszeit Temperatur Wetter
Do, 18.07. 9:00 19.6° C leicht bewölkt
Do, 18.07. 8:00 16.6° C wolkig
Do, 18.07. 7:00 15.0° C leicht bewölkt
Do, 18.07. 6:00 13.3° C leicht bewölkt
Do, 18.07. 5:00 13.4° C leicht bewölkt
Do, 18.07. 4:00 14.3° C leicht bewölkt
Do, 18.07. 3:00 14.0° C leicht bewölkt
Ortszeit Relative Feuchte Sichtweite
Do, 18.07. 8:00 86% 10 km
Do, 18.07. 2:00 89% 15 km
Mi, 17.07. 20:00 69% 30 km
Mi, 17.07. 14:00 72% 20 km
Mi, 17.07. 8:00 86% 15 km
Mi, 17.07. 2:00 97% 7 km
Di, 16.07. 20:00 83% 25 km
Di, 16.07. 14:00 78% 12 km
Ortszeit Relative Feuchte Sichtweite
Do, 18.07. 9:00 75% 14 km
Do, 18.07. 8:00 86% 10 km
Do, 18.07. 7:00 90% 8 km
Do, 18.07. 6:00 95% 6 km
Do, 18.07. 5:00 94% 15 km
Do, 18.07. 4:00 92% 15 km
Do, 18.07. 3:00 92% 15 km
Ortszeit Niederschlagsmenge Niederschlagsart
Do, 18.07. 8:00 0.0 l/m2 in 12 Std. -
Do, 18.07. 2:00 0.0 l/m2 in 6 Std. -
Mi, 17.07. 20:00 0.0 l/m2 in 12 Std. -
Mi, 17.07. 14:00 0.0 l/m2 in 6 Std. -
Mi, 17.07. 8:00 0.0 l/m2 in 12 Std. -
Mi, 17.07. 2:00 0.0 l/m2 in 6 Std. -
Di, 16.07. 20:00 2 l/m2 in 12 Std. -
Di, 16.07. 14:00 2 l/m2 in 6 Std. Schauer
Ortszeit Niederschlagsmenge Niederschlagsart
Do, 18.07. 9:00 keine Meldung -
Do, 18.07. 8:00 keine Meldung -
Do, 18.07. 7:00 keine Meldung -
Do, 18.07. 6:00 keine Meldung -
Do, 18.07. 5:00 keine Meldung -
Do, 18.07. 4:00 keine Meldung -
Do, 18.07. 3:00 keine Meldung -
Ortszeit Stärke Spitze Richtung
km/h Bft. km/h Grad Sektor
Do, 18.07. 8:00 7 2 - 110° O
Do, 18.07. 2:00 7 2 - 90° O
Mi, 17.07. 20:00 7 2 25 30° NO
Mi, 17.07. 14:00 14 3 - 310° NW
Mi, 17.07. 8:00 7 2 - 310° NW
Mi, 17.07. 2:00 11 2 - 220° SW
Di, 16.07. 20:00 22 4 50 230° SW
Di, 16.07. 14:00 29 5 - 230° SW
Ortszeit Stärke Spitze Richtung
km/h Bft. km/h Grad Sektor
Do, 18.07. 9:00 11 2 18 120° SO
Do, 18.07. 8:00 7 2 - 110° O
Do, 18.07. 7:00 7 2 11 110° O
Do, 18.07. 6:00 4 1 11 100° O
Do, 18.07. 5:00 4 1 11 80° O
Do, 18.07. 4:00 4 1 7 90° O
Do, 18.07. 3:00 4 1 7 90° O
Ortszeit Untergrenze Bedeckung Gattung
total tief tief mittel hoch
Do, 18.07. 8:00 - 6/8 6/8 - - -
Do, 18.07. 2:00 - 6/8 6/8 - - -
Mi, 17.07. 20:00 900 m 6/8 1/8 Cu - Ci
Mi, 17.07. 14:00 - 3/8 2/8 Cu - -
Mi, 17.07. 8:00 - 2/8 2/8 - - -
Mi, 17.07. 2:00 - 7/8 7/8 Sc - -
Di, 16.07. 20:00 480 m 8/8 7/8 Cu - -
Di, 16.07. 14:00 - 7/8 1/8 Cu - -
Ortszeit Bedeckungsgrad in Achtel und Wolkenuntergrenze
Do, 18.07. 9:00 6(7500m)
Do, 18.07. 8:00 6
Do, 18.07. 7:00 6(7500m)
Do, 18.07. 6:00 5(7500m)
Do, 18.07. 5:00 5(7500m)
Do, 18.07. 4:00 5(7500m)
Do, 18.07. 3:00 5(7500m)
Ortszeit Luftdruck NN (hPa) Tendenz (hPa in 3 Std.)
Do, 18.07. 8:00 1022 0,0
Do, 18.07. 2:00 1023 - 0,4
Mi, 17.07. 20:00 1023 + 0,2
Mi, 17.07. 14:00 1022 + 0,9
Mi, 17.07. 8:00 1020 + 1,7
Mi, 17.07. 2:00 1017 + 1,2
Di, 16.07. 20:00 1014 + 1,6
Di, 16.07. 14:00 1011 + 1,1
Ortszeit Luftdruck NN (hPa) Tendenz (hPa in 3 Std.)
Do, 18.07. 9:00 1023 + 0,4
Do, 18.07. 8:00 1022 0,0
Do, 18.07. 7:00 1022 - 0,4
Do, 18.07. 6:00 1022 - 0,5
Do, 18.07. 5:00 1022 - 0,4
Do, 18.07. 4:00 1023 - 0,3
Do, 18.07. 3:00 1023 - 0,2
Ortszeit Schneehöhe (cm)
Do, 18.07. 8:00 -
Do, 18.07. 2:00 -
Mi, 17.07. 20:00 -
Mi, 17.07. 14:00 -
Mi, 17.07. 8:00 -
Mi, 17.07. 2:00 -
Di, 16.07. 20:00 -
Di, 16.07. 14:00 -
Ortszeit Schneehöhe (cm)
Do, 18.07. 9:00 -
Do, 18.07. 8:00 -
Do, 18.07. 7:00 -
Do, 18.07. 6:00 -
Do, 18.07. 5:00 -
Do, 18.07. 4:00 -
Do, 18.07. 3:00 -
Link zu dieser Seite / Seite empfehlen

Das Wetter in ...